sensor_id;sensor_type;location;lat;lon;timestamp;P1;durP1;ratioP1;P2;durP2;ratioP2
78222;SDS011;67497;53.058;21.618;2024-03-07T00:00:49;0.10;;;0.10;;
78222;SDS011;67497;53.058;21.618;2024-03-07T00:02:54;0.20;;;0.20;;
78222;SDS011;67497;53.058;21.618;2024-03-07T00:04:54;0.30;;;0.30;;
78222;SDS011;67497;53.058;21.618;2024-03-07T00:06:54;0.30;;;0.30;;
78222;SDS011;67497;53.058;21.618;2024-03-07T00:08:55;0.30;;;0.30;;
78222;SDS011;67497;53.058;21.618;2024-03-07T00:10:55;0.25;;;0.25;;
78222;SDS011;67497;53.058;21.618;2024-03-07T00:12:56;0.20;;;0.20;;
78222;SDS011;67497;53.058;21.618;2024-03-07T00:14:56;0.20;;;0.20;;
78222;SDS011;67497;53.058;21.618;2024-03-07T00:16:57;0.30;;;0.30;;
78222;SDS011;67497;53.058;21.618;2024-03-07T00:18:59;0.30;;;0.30;;
78222;SDS011;67497;53.058;21.618;2024-03-07T00:21:00;0.40;;;0.40;;
78222;SDS011;67497;53.058;21.618;2024-03-07T00:23:00;0.40;;;0.40;;
78222;SDS011;67497;53.058;21.618;2024-03-07T00:25:03;0.30;;;0.30;;
78222;SDS011;67497;53.058;21.618;2024-03-07T00:27:05;0.20;;;0.20;;
78222;SDS011;67497;53.058;21.618;2024-03-07T00:29:05;0.40;;;0.40;;
78222;SDS011;67497;53.058;21.618;2024-03-07T00:31:06;0.30;;;0.30;;
78222;SDS011;67497;53.058;21.618;2024-03-07T00:33:07;0.30;;;0.30;;
78222;SDS011;67497;53.058;21.618;2024-03-07T00:35:08;0.20;;;0.20;;
78222;SDS011;67497;53.058;21.618;2024-03-07T00:37:08;0.40;;;0.40;;
78222;SDS011;67497;53.058;21.618;2024-03-07T00:39:09;0.30;;;0.30;;
78222;SDS011;67497;53.058;21.618;2024-03-07T00:41:11;0.20;;;0.20;;
78222;SDS011;67497;53.058;21.618;2024-03-07T00:43:12;0.30;;;0.30;;
78222;SDS011;67497;53.058;21.618;2024-03-07T00:45:13;0.20;;;0.20;;
78222;SDS011;67497;53.058;21.618;2024-03-07T00:47:14;0.30;;;0.30;;
78222;SDS011;67497;53.058;21.618;2024-03-07T00:49:14;0.28;;;0.28;;
78222;SDS011;67497;53.058;21.618;2024-03-07T00:51:15;0.40;;;0.40;;
78222;SDS011;67497;53.058;21.618;2024-03-07T00:53:16;0.40;;;0.40;;
78222;SDS011;67497;53.058;21.618;2024-03-07T00:55:16;0.32;;;0.32;;
78222;SDS011;67497;53.058;21.618;2024-03-07T00:57:16;0.20;;;0.20;;
78222;SDS011;67497;53.058;21.618;2024-03-07T00:59:17;0.30;;;0.30;;
78222;SDS011;67497;53.058;21.618;2024-03-07T01:01:17;0.20;;;0.20;;
78222;SDS011;67497;53.058;21.618;2024-03-07T01:03:20;0.30;;;0.30;;
78222;SDS011;67497;53.058;21.618;2024-03-07T01:05:21;0.20;;;0.20;;
78222;SDS011;67497;53.058;21.618;2024-03-07T01:07:22;0.47;;;0.47;;
78222;SDS011;67497;53.058;21.618;2024-03-07T01:09:24;0.22;;;0.22;;
78222;SDS011;67497;53.058;21.618;2024-03-07T01:11:25;0.30;;;0.30;;
78222;SDS011;67497;53.058;21.618;2024-03-07T01:13:25;0.32;;;0.32;;
78222;SDS011;67497;53.058;21.618;2024-03-07T01:15:26;0.22;;;0.22;;
78222;SDS011;67497;53.058;21.618;2024-03-07T01:17:26;0.38;;;0.38;;
78222;SDS011;67497;53.058;21.618;2024-03-07T01:19:26;0.22;;;0.22;;
78222;SDS011;67497;53.058;21.618;2024-03-07T01:21:27;0.40;;;0.40;;
78222;SDS011;67497;53.058;21.618;2024-03-07T01:23:27;0.32;;;0.32;;
78222;SDS011;67497;53.058;21.618;2024-03-07T01:25:28;0.30;;;0.30;;
78222;SDS011;67497;53.058;21.618;2024-03-07T01:27:28;0.20;;;0.20;;
78222;SDS011;67497;53.058;21.618;2024-03-07T01:29:29;0.20;;;0.20;;
78222;SDS011;67497;53.058;21.618;2024-03-07T01:31:29;0.43;;;0.43;;
78222;SDS011;67497;53.058;21.618;2024-03-07T01:33:29;0.10;;;0.10;;
78222;SDS011;67497;53.058;21.618;2024-03-07T01:35:30;0.30;;;0.30;;
78222;SDS011;67497;53.058;21.618;2024-03-07T01:37:30;0.20;;;0.20;;
78222;SDS011;67497;53.058;21.618;2024-03-07T01:39:31;0.20;;;0.20;;
78222;SDS011;67497;53.058;21.618;2024-03-07T01:41:31;0.30;;;0.30;;
78222;SDS011;67497;53.058;21.618;2024-03-07T01:43:31;0.40;;;0.40;;
78222;SDS011;67497;53.058;21.618;2024-03-07T01:45:32;0.30;;;0.30;;
78222;SDS011;67497;53.058;21.618;2024-03-07T01:47:32;0.30;;;0.30;;
78222;SDS011;67497;53.058;21.618;2024-03-07T01:49:32;0.40;;;0.40;;
78222;SDS011;67497;53.058;21.618;2024-03-07T01:51:33;0.30;;;0.30;;
78222;SDS011;67497;53.058;21.618;2024-03-07T01:53:36;0.40;;;0.40;;
78222;SDS011;67497;53.058;21.618;2024-03-07T01:55:36;0.10;;;0.10;;
78222;SDS011;67497;53.058;21.618;2024-03-07T01:57:37;0.32;;;0.32;;
78222;SDS011;67497;53.058;21.618;2024-03-07T01:59:38;0.20;;;0.20;;
78222;SDS011;67497;53.058;21.618;2024-03-07T02:01:39;0.40;;;0.40;;
78222;SDS011;67497;53.058;21.618;2024-03-07T02:03:40;0.30;;;0.30;;
78222;SDS011;67497;53.058;21.618;2024-03-07T02:05:40;0.30;;;0.30;;
78222;SDS011;67497;53.058;21.618;2024-03-07T02:07:42;0.30;;;0.30;;
78222;SDS011;67497;53.058;21.618;2024-03-07T02:09:43;0.20;;;0.20;;
78222;SDS011;67497;53.058;21.618;2024-03-07T02:11:43;0.20;;;0.20;;
78222;SDS011;67497;53.058;21.618;2024-03-07T02:13:44;0.38;;;0.38;;
78222;SDS011;67497;53.058;21.618;2024-03-07T02:15:44;0.32;;;0.32;;
78222;SDS011;67497;53.058;21.618;2024-03-07T02:17:45;0.30;;;0.30;;
78222;SDS011;67497;53.058;21.618;2024-03-07T02:19:45;0.32;;;0.32;;
78222;SDS011;67497;53.058;21.618;2024-03-07T02:21:46;0.17;;;0.17;;
78222;SDS011;67497;53.058;21.618;2024-03-07T02:23:47;0.30;;;0.30;;
78222;SDS011;67497;53.058;21.618;2024-03-07T02:25:47;0.38;;;0.38;;
78222;SDS011;67497;53.058;21.618;2024-03-07T02:27:47;0.40;;;0.40;;
78222;SDS011;67497;53.058;21.618;2024-03-07T02:29:48;0.30;;;0.30;;
78222;SDS011;67497;53.058;21.618;2024-03-07T02:31:49;0.30;;;0.30;;
78222;SDS011;67497;53.058;21.618;2024-03-07T02:33:49;0.20;;;0.20;;
78222;SDS011;67497;53.058;21.618;2024-03-07T02:35:49;0.25;;;0.25;;
78222;SDS011;67497;53.058;21.618;2024-03-07T02:37:50;0.40;;;0.40;;
78222;SDS011;67497;53.058;21.618;2024-03-07T02:39:50;0.40;;;0.40;;
78222;SDS011;67497;53.058;21.618;2024-03-07T02:41:51;0.30;;;0.30;;
78222;SDS011;67497;53.058;21.618;2024-03-07T02:43:52;0.20;;;0.20;;
78222;SDS011;67497;53.058;21.618;2024-03-07T02:45:53;0.43;;;0.43;;
78222;SDS011;67497;53.058;21.618;2024-03-07T02:47:54;0.50;;;0.50;;
78222;SDS011;67497;53.058;21.618;2024-03-07T02:49:55;0.25;;;0.25;;
78222;SDS011;67497;53.058;21.618;2024-03-07T02:51:55;0.28;;;0.28;;
78222;SDS011;67497;53.058;21.618;2024-03-07T02:53:55;0.30;;;0.30;;
78222;SDS011;67497;53.058;21.618;2024-03-07T02:55:56;0.50;;;0.50;;
78222;SDS011;67497;53.058;21.618;2024-03-07T02:57:56;0.50;;;0.50;;
78222;SDS011;67497;53.058;21.618;2024-03-07T02:59:59;0.40;;;0.40;;
78222;SDS011;67497;53.058;21.618;2024-03-07T03:01:59;0.20;;;0.20;;
78222;SDS011;67497;53.058;21.618;2024-03-07T03:04:00;0.40;;;0.40;;
78222;SDS011;67497;53.058;21.618;2024-03-07T03:06:00;0.30;;;0.30;;
78222;SDS011;67497;53.058;21.618;2024-03-07T03:08:00;0.50;;;0.50;;
78222;SDS011;67497;53.058;21.618;2024-03-07T03:10:01;0.60;;;0.60;;
78222;SDS011;67497;53.058;21.618;2024-03-07T03:12:05;0.10;;;0.10;;
78222;SDS011;67497;53.058;21.618;2024-03-07T03:14:06;0.30;;;0.30;;
78222;SDS011;67497;53.058;21.618;2024-03-07T03:16:06;0.38;;;0.38;;
78222;SDS011;67497;53.058;21.618;2024-03-07T03:18:07;0.25;;;0.25;;
78222;SDS011;67497;53.058;21.618;2024-03-07T03:20:07;0.25;;;0.25;;
78222;SDS011;67497;53.058;21.618;2024-03-07T03:22:18;0.40;;;0.40;;
78222;SDS011;67497;53.058;21.618;2024-03-07T03:24:18;0.40;;;0.40;;
78222;SDS011;67497;53.058;21.618;2024-03-07T03:26:20;0.30;;;0.30;;
78222;SDS011;67497;53.058;21.618;2024-03-07T03:28:22;0.28;;;0.28;;
78222;SDS011;67497;53.058;21.618;2024-03-07T03:30:22;0.30;;;0.30;;
78222;SDS011;67497;53.058;21.618;2024-03-07T03:32:24;0.32;;;0.32;;
78222;SDS011;67497;53.058;21.618;2024-03-07T03:34:24;0.35;;;0.35;;
78222;SDS011;67497;53.058;21.618;2024-03-07T03:36:26;0.25;;;0.25;;
78222;SDS011;67497;53.058;21.618;2024-03-07T03:38:27;0.38;;;0.38;;
78222;SDS011;67497;53.058;21.618;2024-03-07T03:40:27;0.30;;;0.30;;
78222;SDS011;67497;53.058;21.618;2024-03-07T03:42:27;0.40;;;0.40;;
78222;SDS011;67497;53.058;21.618;2024-03-07T03:44:28;0.35;;;0.35;;
78222;SDS011;67497;53.058;21.618;2024-03-07T03:46:28;0.20;;;0.20;;
78222;SDS011;67497;53.058;21.618;2024-03-07T03:48:28;0.43;;;0.43;;
78222;SDS011;67497;53.058;21.618;2024-03-07T03:50:29;0.38;;;0.38;;
78222;SDS011;67497;53.058;21.618;2024-03-07T03:52:29;0.22;;;0.22;;
78222;SDS011;67497;53.058;21.618;2024-03-07T03:54:30;0.20;;;0.20;;
78222;SDS011;67497;53.058;21.618;2024-03-07T03:56:31;0.20;;;0.20;;
78222;SDS011;67497;53.058;21.618;2024-03-07T03:58:32;0.25;;;0.25;;
78222;SDS011;67497;53.058;21.618;2024-03-07T04:00:32;0.20;;;0.20;;
78222;SDS011;67497;53.058;21.618;2024-03-07T04:02:32;0.45;;;0.45;;
78222;SDS011;67497;53.058;21.618;2024-03-07T04:04:33;0.30;;;0.30;;
78222;SDS011;67497;53.058;21.618;2024-03-07T04:06:33;0.30;;;0.30;;
78222;SDS011;67497;53.058;21.618;2024-03-07T04:08:35;0.30;;;0.30;;
78222;SDS011;67497;53.058;21.618;2024-03-07T04:10:36;0.90;;;0.90;;
78222;SDS011;67497;53.058;21.618;2024-03-07T04:12:37;0.90;;;0.90;;
78222;SDS011;67497;53.058;21.618;2024-03-07T04:14:40;1.00;;;1.00;;
78222;SDS011;67497;53.058;21.618;2024-03-07T04:16:40;1.30;;;1.20;;
78222;SDS011;67497;53.058;21.618;2024-03-07T04:18:41;1.10;;;1.00;;
78222;SDS011;67497;53.058;21.618;2024-03-07T04:20:41;1.40;;;1.30;;
78222;SDS011;67497;53.058;21.618;2024-03-07T04:22:44;2.20;;;2.00;;
78222;SDS011;67497;53.058;21.618;2024-03-07T04:24:45;2.28;;;2.08;;
78222;SDS011;67497;53.058;21.618;2024-03-07T04:26:45;2.55;;;2.35;;
78222;SDS011;67497;53.058;21.618;2024-03-07T04:28:46;1.90;;;1.70;;
78222;SDS011;67497;53.058;21.618;2024-03-07T04:30:48;1.48;;;1.38;;
78222;SDS011;67497;53.058;21.618;2024-03-07T04:32:49;2.08;;;1.88;;
78222;SDS011;67497;53.058;21.618;2024-03-07T04:34:49;2.10;;;1.90;;
78222;SDS011;67497;53.058;21.618;2024-03-07T04:36:50;1.55;;;1.38;;
78222;SDS011;67497;53.058;21.618;2024-03-07T04:38:51;0.90;;;0.90;;
78222;SDS011;67497;53.058;21.618;2024-03-07T04:40:52;0.60;;;0.60;;
78222;SDS011;67497;53.058;21.618;2024-03-07T04:42:53;1.10;;;1.00;;
78222;SDS011;67497;53.058;21.618;2024-03-07T04:44:54;1.35;;;1.20;;
78222;SDS011;67497;53.058;21.618;2024-03-07T04:46:54;1.40;;;1.30;;
78222;SDS011;67497;53.058;21.618;2024-03-07T04:48:56;1.38;;;1.23;;
78222;SDS011;67497;53.058;21.618;2024-03-07T04:50:57;1.50;;;1.30;;
78222;SDS011;67497;53.058;21.618;2024-03-07T04:52:58;1.10;;;1.00;;
78222;SDS011;67497;53.058;21.618;2024-03-07T04:54:58;1.17;;;1.10;;
78222;SDS011;67497;53.058;21.618;2024-03-07T04:56:59;1.00;;;1.00;;
78222;SDS011;67497;53.058;21.618;2024-03-07T04:58:59;0.80;;;0.80;;
78222;SDS011;67497;53.058;21.618;2024-03-07T05:00:59;0.57;;;0.57;;
78222;SDS011;67497;53.058;21.618;2024-03-07T05:03:00;0.43;;;0.43;;
78222;SDS011;67497;53.058;21.618;2024-03-07T05:05:00;0.40;;;0.40;;
78222;SDS011;67497;53.058;21.618;2024-03-07T05:07:00;0.40;;;0.40;;
78222;SDS011;67497;53.058;21.618;2024-03-07T05:09:01;0.47;;;0.47;;
78222;SDS011;67497;53.058;21.618;2024-03-07T05:11:03;0.30;;;0.30;;
78222;SDS011;67497;53.058;21.618;2024-03-07T05:13:04;0.40;;;0.40;;
78222;SDS011;67497;53.058;21.618;2024-03-07T05:15:06;0.32;;;0.32;;
78222;SDS011;67497;53.058;21.618;2024-03-07T05:17:09;0.40;;;0.40;;
78222;SDS011;67497;53.058;21.618;2024-03-07T05:19:10;0.32;;;0.32;;
78222;SDS011;67497;53.058;21.618;2024-03-07T05:21:10;0.40;;;0.40;;
78222;SDS011;67497;53.058;21.618;2024-03-07T05:23:29;0.50;;;0.50;;
78222;SDS011;67497;53.058;21.618;2024-03-07T05:25:31;0.35;;;0.35;;
78222;SDS011;67497;53.058;21.618;2024-03-07T05:27:31;0.20;;;0.20;;
78222;SDS011;67497;53.058;21.618;2024-03-07T05:29:33;0.45;;;0.45;;
78222;SDS011;67497;53.058;21.618;2024-03-07T05:31:34;0.30;;;0.30;;
78222;SDS011;67497;53.058;21.618;2024-03-07T05:33:35;0.30;;;0.30;;
78222;SDS011;67497;53.058;21.618;2024-03-07T05:35:36;0.30;;;0.30;;
78222;SDS011;67497;53.058;21.618;2024-03-07T05:37:37;0.30;;;0.30;;
78222;SDS011;67497;53.058;21.618;2024-03-07T05:39:37;0.35;;;0.35;;
78222;SDS011;67497;53.058;21.618;2024-03-07T05:41:38;0.20;;;0.20;;
78222;SDS011;67497;53.058;21.618;2024-03-07T05:43:42;0.30;;;0.30;;
78222;SDS011;67497;53.058;21.618;2024-03-07T05:45:44;0.38;;;0.38;;
78222;SDS011;67497;53.058;21.618;2024-03-07T05:47:44;0.22;;;0.22;;
78222;SDS011;67497;53.058;21.618;2024-03-07T05:49:47;0.20;;;0.20;;
78222;SDS011;67497;53.058;21.618;2024-03-07T05:51:48;0.30;;;0.30;;
78222;SDS011;67497;53.058;21.618;2024-03-07T05:53:49;0.40;;;0.40;;
78222;SDS011;67497;53.058;21.618;2024-03-07T05:55:50;0.35;;;0.35;;
78222;SDS011;67497;53.058;21.618;2024-03-07T05:57:50;0.28;;;0.28;;
78222;SDS011;67497;53.058;21.618;2024-03-07T05:59:52;0.30;;;0.30;;
78222;SDS011;67497;53.058;21.618;2024-03-07T06:01:52;0.28;;;0.28;;
78222;SDS011;67497;53.058;21.618;2024-03-07T06:03:54;0.30;;;0.30;;
78222;SDS011;67497;53.058;21.618;2024-03-07T06:05:54;0.30;;;0.30;;
78222;SDS011;67497;53.058;21.618;2024-03-07T06:07:54;0.20;;;0.20;;
78222;SDS011;67497;53.058;21.618;2024-03-07T06:09:56;0.10;;;0.10;;
78222;SDS011;67497;53.058;21.618;2024-03-07T06:11:56;0.20;;;0.20;;
78222;SDS011;67497;53.058;21.618;2024-03-07T06:13:57;0.30;;;0.30;;
78222;SDS011;67497;53.058;21.618;2024-03-07T06:15:58;0.50;;;0.50;;
78222;SDS011;67497;53.058;21.618;2024-03-07T06:17:58;0.40;;;0.40;;
78222;SDS011;67497;53.058;21.618;2024-03-07T06:19:59;0.50;;;0.50;;
78222;SDS011;67497;53.058;21.618;2024-03-07T06:22:00;0.20;;;0.20;;
78222;SDS011;67497;53.058;21.618;2024-03-07T06:24:00;0.40;;;0.40;;
78222;SDS011;67497;53.058;21.618;2024-03-07T06:26:03;0.30;;;0.30;;
78222;SDS011;67497;53.058;21.618;2024-03-07T06:28:12;0.10;;;0.10;;
78222;SDS011;67497;53.058;21.618;2024-03-07T06:30:13;0.30;;;0.30;;
78222;SDS011;67497;53.058;21.618;2024-03-07T06:32:16;0.35;;;0.35;;
78222;SDS011;67497;53.058;21.618;2024-03-07T06:34:16;0.40;;;0.40;;
78222;SDS011;67497;53.058;21.618;2024-03-07T06:36:17;0.28;;;0.28;;
78222;SDS011;67497;53.058;21.618;2024-03-07T06:38:17;0.30;;;0.30;;
78222;SDS011;67497;53.058;21.618;2024-03-07T06:40:18;0.30;;;0.30;;
78222;SDS011;67497;53.058;21.618;2024-03-07T06:42:22;0.20;;;0.20;;
78222;SDS011;67497;53.058;21.618;2024-03-07T06:44:22;0.50;;;0.50;;
78222;SDS011;67497;53.058;21.618;2024-03-07T06:46:23;0.35;;;0.35;;
78222;SDS011;67497;53.058;21.618;2024-03-07T06:48:24;0.20;;;0.20;;
78222;SDS011;67497;53.058;21.618;2024-03-07T06:50:25;0.30;;;0.30;;
78222;SDS011;67497;53.058;21.618;2024-03-07T06:52:25;0.35;;;0.35;;
78222;SDS011;67497;53.058;21.618;2024-03-07T06:54:25;0.32;;;0.32;;
78222;SDS011;67497;53.058;21.618;2024-03-07T06:56:26;0.28;;;0.28;;
78222;SDS011;67497;53.058;21.618;2024-03-07T06:58:26;0.35;;;0.35;;
78222;SDS011;67497;53.058;21.618;2024-03-07T07:00:26;0.30;;;0.30;;
78222;SDS011;67497;53.058;21.618;2024-03-07T07:02:27;0.30;;;0.30;;
78222;SDS011;67497;53.058;21.618;2024-03-07T07:04:27;0.35;;;0.35;;
78222;SDS011;67497;53.058;21.618;2024-03-07T07:06:38;0.30;;;0.30;;
78222;SDS011;67497;53.058;21.618;2024-03-07T07:08:39;0.20;;;0.20;;
78222;SDS011;67497;53.058;21.618;2024-03-07T07:10:39;0.40;;;0.40;;
78222;SDS011;67497;53.058;21.618;2024-03-07T07:12:40;0.30;;;0.30;;
78222;SDS011;67497;53.058;21.618;2024-03-07T07:14:40;0.20;;;0.20;;
78222;SDS011;67497;53.058;21.618;2024-03-07T07:16:40;0.28;;;0.28;;
78222;SDS011;67497;53.058;21.618;2024-03-07T07:18:45;0.30;;;0.30;;
78222;SDS011;67497;53.058;21.618;2024-03-07T07:20:45;0.22;;;0.22;;
78222;SDS011;67497;53.058;21.618;2024-03-07T07:22:47;0.32;;;0.32;;
78222;SDS011;67497;53.058;21.618;2024-03-07T07:24:48;0.40;;;0.40;;
78222;SDS011;67497;53.058;21.618;2024-03-07T07:26:49;0.25;;;0.25;;
78222;SDS011;67497;53.058;21.618;2024-03-07T07:28:53;0.28;;;0.28;;
78222;SDS011;67497;53.058;21.618;2024-03-07T07:30:54;0.40;;;0.40;;
78222;SDS011;67497;53.058;21.618;2024-03-07T07:32:54;0.40;;;0.40;;
78222;SDS011;67497;53.058;21.618;2024-03-07T07:34:55;0.28;;;0.28;;
78222;SDS011;67497;53.058;21.618;2024-03-07T07:36:55;0.20;;;0.20;;
78222;SDS011;67497;53.058;21.618;2024-03-07T07:38:56;0.00;;;0.00;;
78222;SDS011;67497;53.058;21.618;2024-03-07T07:40:58;0.20;;;0.20;;
78222;SDS011;67497;53.058;21.618;2024-03-07T07:42:58;0.30;;;0.30;;
78222;SDS011;67497;53.058;21.618;2024-03-07T07:45:01;0.40;;;0.40;;
78222;SDS011;67497;53.058;21.618;2024-03-07T07:47:01;0.22;;;0.22;;
78222;SDS011;67497;53.058;21.618;2024-03-07T07:49:01;0.30;;;0.30;;
78222;SDS011;67497;53.058;21.618;2024-03-07T07:51:02;0.35;;;0.35;;
78222;SDS011;67497;53.058;21.618;2024-03-07T07:53:05;0.50;;;0.50;;
78222;SDS011;67497;53.058;21.618;2024-03-07T07:55:09;0.38;;;0.38;;
78222;SDS011;67497;53.058;21.618;2024-03-07T07:57:15;0.30;;;0.30;;
78222;SDS011;67497;53.058;21.618;2024-03-07T07:59:16;0.20;;;0.20;;
78222;SDS011;67497;53.058;21.618;2024-03-07T08:01:16;0.40;;;0.40;;
78222;SDS011;67497;53.058;21.618;2024-03-07T08:03:16;0.28;;;0.28;;
78222;SDS011;67497;53.058;21.618;2024-03-07T08:05:24;0.22;;;0.22;;
78222;SDS011;67497;53.058;21.618;2024-03-07T08:07:27;0.20;;;0.20;;
78222;SDS011;67497;53.058;21.618;2024-03-07T08:09:27;0.35;;;0.35;;
78222;SDS011;67497;53.058;21.618;2024-03-07T08:11:27;0.20;;;0.20;;
78222;SDS011;67497;53.058;21.618;2024-03-07T08:13:28;0.30;;;0.30;;
78222;SDS011;67497;53.058;21.618;2024-03-07T08:15:29;0.30;;;0.30;;
78222;SDS011;67497;53.058;21.618;2024-03-07T08:17:30;0.13;;;0.13;;
78222;SDS011;67497;53.058;21.618;2024-03-07T08:19:31;0.38;;;0.38;;
78222;SDS011;67497;53.058;21.618;2024-03-07T08:21:31;0.30;;;0.30;;
78222;SDS011;67497;53.058;21.618;2024-03-07T08:23:32;0.28;;;0.28;;
78222;SDS011;67497;53.058;21.618;2024-03-07T08:25:33;0.22;;;0.22;;
78222;SDS011;67497;53.058;21.618;2024-03-07T08:27:33;0.30;;;0.30;;
78222;SDS011;67497;53.058;21.618;2024-03-07T08:29:33;0.30;;;0.30;;
78222;SDS011;67497;53.058;21.618;2024-03-07T08:31:34;0.20;;;0.20;;
78222;SDS011;67497;53.058;21.618;2024-03-07T08:33:34;0.30;;;0.30;;
78222;SDS011;67497;53.058;21.618;2024-03-07T08:35:34;0.20;;;0.20;;
78222;SDS011;67497;53.058;21.618;2024-03-07T08:37:35;0.28;;;0.28;;
78222;SDS011;67497;53.058;21.618;2024-03-07T08:39:36;0.25;;;0.25;;
78222;SDS011;67497;53.058;21.618;2024-03-07T08:41:36;0.30;;;0.30;;
78222;SDS011;67497;53.058;21.618;2024-03-07T08:43:41;0.20;;;0.20;;
78222;SDS011;67497;53.058;21.618;2024-03-07T08:45:41;0.20;;;0.20;;
78222;SDS011;67497;53.058;21.618;2024-03-07T08:47:42;0.30;;;0.30;;
78222;SDS011;67497;53.058;21.618;2024-03-07T08:49:43;0.30;;;0.30;;
78222;SDS011;67497;53.058;21.618;2024-03-07T08:51:43;0.20;;;0.20;;
78222;SDS011;67497;53.058;21.618;2024-03-07T08:53:44;0.32;;;0.32;;
78222;SDS011;67497;53.058;21.618;2024-03-07T08:55:44;0.20;;;0.20;;
78222;SDS011;67497;53.058;21.618;2024-03-07T08:57:44;0.22;;;0.22;;
78222;SDS011;67497;53.058;21.618;2024-03-07T08:59:49;0.10;;;0.10;;
78222;SDS011;67497;53.058;21.618;2024-03-07T09:01:50;0.10;;;0.10;;
78222;SDS011;67497;53.058;21.618;2024-03-07T09:03:52;0.20;;;0.20;;
78222;SDS011;67497;53.058;21.618;2024-03-07T09:05:52;0.30;;;0.30;;
78222;SDS011;67497;53.058;21.618;2024-03-07T09:07:53;0.20;;;0.20;;
78222;SDS011;67497;53.058;21.618;2024-03-07T09:09:54;0.10;;;0.10;;
78222;SDS011;67497;53.058;21.618;2024-03-07T09:11:55;0.25;;;0.25;;
78222;SDS011;67497;53.058;21.618;2024-03-07T09:13:55;0.25;;;0.25;;
78222;SDS011;67497;53.058;21.618;2024-03-07T09:15:55;0.20;;;0.20;;
78222;SDS011;67497;53.058;21.618;2024-03-07T09:17:56;0.28;;;0.28;;
78222;SDS011;67497;53.058;21.618;2024-03-07T09:19:58;0.25;;;0.25;;
78222;SDS011;67497;53.058;21.618;2024-03-07T09:21:58;0.38;;;0.38;;
78222;SDS011;67497;53.058;21.618;2024-03-07T09:24:00;0.20;;;0.20;;
78222;SDS011;67497;53.058;21.618;2024-03-07T09:26:00;0.30;;;0.30;;
78222;SDS011;67497;53.058;21.618;2024-03-07T09:28:02;0.30;;;0.30;;
78222;SDS011;67497;53.058;21.618;2024-03-07T09:30:04;0.28;;;0.28;;
78222;SDS011;67497;53.058;21.618;2024-03-07T09:32:05;0.40;;;0.40;;
78222;SDS011;67497;53.058;21.618;2024-03-07T09:34:08;0.20;;;0.20;;
78222;SDS011;67497;53.058;21.618;2024-03-07T09:36:09;0.30;;;0.30;;
78222;SDS011;67497;53.058;21.618;2024-03-07T09:38:09;0.20;;;0.20;;
78222;SDS011;67497;53.058;21.618;2024-03-07T09:40:10;0.20;;;0.20;;
78222;SDS011;67497;53.058;21.618;2024-03-07T09:42:13;0.30;;;0.30;;
78222;SDS011;67497;53.058;21.618;2024-03-07T09:44:17;0.30;;;0.30;;
78222;SDS011;67497;53.058;21.618;2024-03-07T09:46:23;0.17;;;0.17;;
78222;SDS011;67497;53.058;21.618;2024-03-07T09:48:24;0.10;;;0.10;;
78222;SDS011;67497;53.058;21.618;2024-03-07T09:50:29;0.20;;;0.20;;
78222;SDS011;67497;53.058;21.618;2024-03-07T09:52:29;0.20;;;0.20;;
78222;SDS011;67497;53.058;21.618;2024-03-07T09:54:34;0.17;;;0.17;;
78222;SDS011;67497;53.058;21.618;2024-03-07T09:56:35;0.30;;;0.30;;
78222;SDS011;67497;53.058;21.618;2024-03-07T09:58:37;0.30;;;0.30;;
78222;SDS011;67497;53.058;21.618;2024-03-07T10:00:39;0.25;;;0.25;;
78222;SDS011;67497;53.058;21.618;2024-03-07T10:02:40;0.20;;;0.20;;
78222;SDS011;67497;53.058;21.618;2024-03-07T10:04:48;0.20;;;0.20;;
78222;SDS011;67497;53.058;21.618;2024-03-07T10:06:50;0.20;;;0.20;;
78222;SDS011;67497;53.058;21.618;2024-03-07T10:10:54;0.30;;;0.30;;
78222;SDS011;67497;53.058;21.618;2024-03-07T10:12:55;0.20;;;0.20;;
78222;SDS011;67497;53.058;21.618;2024-03-07T10:15:02;0.10;;;0.10;;
78222;SDS011;67497;53.058;21.618;2024-03-07T10:17:03;0.35;;;0.35;;
78222;SDS011;67497;53.058;21.618;2024-03-07T10:19:04;0.30;;;0.30;;
78222;SDS011;67497;53.058;21.618;2024-03-07T10:21:05;0.10;;;0.10;;
78222;SDS011;67497;53.058;21.618;2024-03-07T10:23:05;0.13;;;0.13;;
78222;SDS011;67497;53.058;21.618;2024-03-07T10:25:07;0.10;;;0.10;;
78222;SDS011;67497;53.058;21.618;2024-03-07T10:27:08;0.20;;;0.20;;
78222;SDS011;67497;53.058;21.618;2024-03-07T10:29:08;0.30;;;0.30;;
78222;SDS011;67497;53.058;21.618;2024-03-07T10:31:09;0.20;;;0.20;;
78222;SDS011;67497;53.058;21.618;2024-03-07T10:33:11;0.20;;;0.20;;
78222;SDS011;67497;53.058;21.618;2024-03-07T10:35:12;0.20;;;0.20;;
78222;SDS011;67497;53.058;21.618;2024-03-07T10:37:14;0.35;;;0.35;;
78222;SDS011;67497;53.058;21.618;2024-03-07T10:39:20;0.20;;;0.20;;
78222;SDS011;67497;53.058;21.618;2024-03-07T10:41:23;0.22;;;0.22;;
78222;SDS011;67497;53.058;21.618;2024-03-07T10:43:30;0.20;;;0.20;;
78222;SDS011;67497;53.058;21.618;2024-03-07T10:45:43;0.10;;;0.10;;
78222;SDS011;67497;53.058;21.618;2024-03-07T10:47:48;0.28;;;0.28;;
78222;SDS011;67497;53.058;21.618;2024-03-07T10:52:39;0.20;;;0.20;;
78222;SDS011;67497;53.058;21.618;2024-03-07T10:57:16;0.40;;;0.40;;
78222;SDS011;67497;53.058;21.618;2024-03-07T10:59:26;0.13;;;0.13;;
78222;SDS011;67497;53.058;21.618;2024-03-07T11:01:30;0.35;;;0.35;;
78222;SDS011;67497;53.058;21.618;2024-03-07T11:03:32;0.40;;;0.40;;
78222;SDS011;67497;53.058;21.618;2024-03-07T11:07:35;0.30;;;0.30;;
78222;SDS011;67497;53.058;21.618;2024-03-07T11:09:36;0.25;;;0.25;;
78222;SDS011;67497;53.058;21.618;2024-03-07T11:11:37;0.10;;;0.10;;
78222;SDS011;67497;53.058;21.618;2024-03-07T11:13:40;0.25;;;0.25;;
78222;SDS011;67497;53.058;21.618;2024-03-07T11:15:41;0.20;;;0.20;;
78222;SDS011;67497;53.058;21.618;2024-03-07T11:17:44;0.50;;;0.50;;
78222;SDS011;67497;53.058;21.618;2024-03-07T11:19:46;0.10;;;0.10;;
78222;SDS011;67497;53.058;21.618;2024-03-07T11:21:47;0.30;;;0.30;;
78222;SDS011;67497;53.058;21.618;2024-03-07T11:23:48;0.17;;;0.17;;
78222;SDS011;67497;53.058;21.618;2024-03-07T11:25:48;0.30;;;0.30;;
78222;SDS011;67497;53.058;21.618;2024-03-07T11:27:56;0.10;;;0.10;;
78222;SDS011;67497;53.058;21.618;2024-03-07T11:30:04;0.30;;;0.30;;
78222;SDS011;67497;53.058;21.618;2024-03-07T11:32:17;0.28;;;0.28;;
78222;SDS011;67497;53.058;21.618;2024-03-07T11:34:17;0.20;;;0.20;;
78222;SDS011;67497;53.058;21.618;2024-03-07T11:36:43;0.30;;;0.30;;
78222;SDS011;67497;53.058;21.618;2024-03-07T11:38:49;0.20;;;0.20;;
78222;SDS011;67497;53.058;21.618;2024-03-07T11:40:50;0.20;;;0.20;;
78222;SDS011;67497;53.058;21.618;2024-03-07T11:42:51;0.20;;;0.20;;
78222;SDS011;67497;53.058;21.618;2024-03-07T11:45:00;0.20;;;0.20;;
78222;SDS011;67497;53.058;21.618;2024-03-07T11:47:05;0.30;;;0.30;;
78222;SDS011;67497;53.058;21.618;2024-03-07T11:49:09;0.30;;;0.30;;
78222;SDS011;67497;53.058;21.618;2024-03-07T11:51:13;0.25;;;0.25;;
78222;SDS011;67497;53.058;21.618;2024-03-07T11:53:15;0.22;;;0.22;;
78222;SDS011;67497;53.058;21.618;2024-03-07T11:55:16;0.20;;;0.20;;
78222;SDS011;67497;53.058;21.618;2024-03-07T11:57:19;0.22;;;0.22;;
78222;SDS011;67497;53.058;21.618;2024-03-07T11:59:19;0.10;;;0.10;;
78222;SDS011;67497;53.058;21.618;2024-03-07T12:01:20;0.10;;;0.10;;
78222;SDS011;67497;53.058;21.618;2024-03-07T12:03:25;0.17;;;0.17;;
78222;SDS011;67497;53.058;21.618;2024-03-07T12:05:25;0.20;;;0.20;;
78222;SDS011;67497;53.058;21.618;2024-03-07T12:07:27;0.20;;;0.20;;
78222;SDS011;67497;53.058;21.618;2024-03-07T12:09:27;0.13;;;0.13;;